Time;durP1;ratioP1;P1;durP2;ratioP2;P2;SDS_P1;SDS_P2;PMS_P1;PMS_P2;Temp;Humidity;BMP_temperature;BMP_pressure;BME280_temperature;BME280_humidity;BME280_pressure;Samples;Min_cycle;Max_cycle;Signal;HPM_P1;HPM_P2
2021/12/24 00:01:42;;;;;;;13.60;6.13;;;;;;;6.92;75.09;97274.34;4998136;28;20048;-54
2021/12/24 00:04:09;;;;;;;10.30;5.85;;;;;;;6.93;75.06;97275.19;4986778;28;20019;-53
2021/12/24 00:06:35;;;;;;;10.98;5.32;;;;;;;6.91;74.93;97270.06;4985115;28;20371;-55
2021/12/24 00:09:02;;;;;;;10.38;5.20;;;;;;;6.88;75.17;97276.34;4986691;28;20026;-53
2021/12/24 00:11:27;;;;;;;10.40;4.97;;;;;;;6.96;74.94;97267.97;4987450;28;20026;-53
2021/12/24 00:13:53;;;;;;;11.38;5.40;;;;;;;6.96;75.64;97251.50;4985135;28;20058;-52
2021/12/24 00:16:26;;;;;;;12.45;5.18;;;;;;;6.99;74.87;97251.31;4985529;28;20049;-49
2021/12/24 00:19:42;;;;;;;10.80;4.88;;;;;;;7.01;75.40;97247.63;4985969;28;20050;-54
2021/12/24 00:35:12;;;;;;;11.27;4.53;;;;;;;7.14;74.92;97229.34;4990621;28;20034;-54
2021/12/24 00:37:41;;;;;;;11.65;5.15;;;;;;;7.05;75.26;97206.53;5004750;28;20027;-54
2021/12/24 00:42:35;;;;;;;10.13;5.22;;;;;;;7.05;75.95;97209.13;4987210;28;20034;-53
2021/12/24 00:45:01;;;;;;;15.20;5.32;;;;;;;7.08;75.80;97203.72;4987491;28;20041;-52
2021/12/24 00:47:26;;;;;;;11.52;5.20;;;;;;;7.07;76.04;97207.25;4985554;28;20030;-51
2021/12/24 00:49:52;;;;;;;12.90;5.25;;;;;;;7.10;75.87;97199.22;4987667;28;20114;-53
2021/12/24 00:55:06;;;;;;;8.68;4.55;;;;;;;7.12;75.63;97210.38;4986692;28;20538;-53
2021/12/24 00:57:34;;;;;;;10.45;4.40;;;;;;;7.07;75.99;97202.88;4984608;28;20031;-53
2021/12/24 01:00:00;;;;;;;11.07;4.75;;;;;;;7.05;76.00;97209.13;4986510;28;20491;-51
2021/12/24 01:02:25;;;;;;;9.60;4.25;;;;;;;7.05;76.81;97202.13;4985340;28;20030;-52
2021/12/24 01:04:51;;;;;;;9.43;4.57;;;;;;;7.05;76.86;97198.69;4975782;28;20030;-53
2021/12/24 01:07:16;;;;;;;9.10;4.70;;;;;;;7.13;76.42;97192.03;4966849;28;20034;-53
2021/12/24 01:09:41;;;;;;;13.10;4.70;;;;;;;7.01;77.03;97199.88;4966282;28;20027;-50
2021/12/24 01:12:07;;;;;;;10.45;4.80;;;;;;;7.06;77.10;97205.59;4970616;28;20041;-53
2021/12/24 01:14:33;;;;;;;12.52;5.07;;;;;;;7.02;77.11;97220.63;4982531;28;20034;-53
2021/12/24 01:17:11;;;;;;;9.65;4.18;;;;;;;6.97;77.28;97214.06;4979287;28;20023;-53
2021/12/24 01:19:39;;;;;;;9.82;4.72;;;;;;;7.05;77.53;97204.75;4986262;28;20041;-50
2021/12/24 01:23:16;;;;;;;11.60;4.70;;;;;;;7.11;76.66;97206.09;4984743;28;20022;-53
2021/12/24 01:25:01;;;;;;;8.75;4.45;;;;;;;7.10;76.84;97201.84;4961961;28;20175;-50
2021/12/24 01:38:17;;;;;;;9.35;4.30;;;;;;;7.06;76.81;97205.59;4986134;28;20513;-50
2021/12/24 01:41:04;;;;;;;12.00;4.50;;;;;;;7.04;77.79;97202.25;4985723;28;20319;-50
2021/12/24 01:43:28;;;;;;;11.40;4.10;;;;;;;7.11;76.73;97203.50;4988608;28;20034;-53
2021/12/24 01:45:55;;;;;;;9.60;4.32;;;;;;;7.00;77.54;97190.38;5004896;28;20037;-53
2021/12/24 01:48:20;;;;;;;10.45;4.80;;;;;;;6.95;77.67;97193.31;5003819;28;20037;-49
2021/12/24 01:50:47;;;;;;;9.88;4.28;;;;;;;6.94;78.41;97183.81;5001560;28;20113;-52
2021/12/24 01:53:16;;;;;;;13.23;4.63;;;;;;;6.95;78.29;97180.28;4984072;28;20023;-50
2021/12/24 01:55:41;;;;;;;8.38;3.92;;;;;;;6.93;78.68;97174.34;4984531;28;20038;-55
2021/12/24 01:58:07;;;;;;;9.60;4.60;;;;;;;6.88;78.73;97192.06;4988279;28;20403;-50
2021/12/24 02:00:36;;;;;;;9.93;4.70;;;;;;;6.86;79.16;97183.53;5004467;28;20109;-52
2021/12/24 02:03:02;;;;;;;9.18;4.30;;;;;;;6.85;79.19;97187.91;4988217;28;20087;-53
2021/12/24 02:05:27;;;;;;;11.27;4.97;;;;;;;6.81;79.46;97169.97;4985307;28;20379;-53
2021/12/24 02:07:52;;;;;;;10.50;4.40;;;;;;;6.84;78.99;97177.59;4984213;28;20030;-51
2021/12/24 02:10:19;;;;;;;9.38;4.10;;;;;;;6.82;79.50;97182.91;4985256;28;20026;-55
2021/12/24 02:12:45;;;;;;;10.27;4.63;;;;;;;6.86;79.40;97173.94;4984706;28;20031;-55
2021/12/24 02:15:20;;;;;;;11.00;4.53;;;;;;;7.03;78.42;97179.75;4984492;28;20027;-52
2021/12/24 02:28:46;;;;;;;9.73;4.45;;;;;;;6.93;78.66;97157.88;4962617;28;20062;-53
2021/12/24 02:31:16;;;;;;;9.90;4.38;;;;;;;6.95;78.46;97159.44;4984144;28;20038;-54
2021/12/24 02:33:42;;;;;;;9.20;3.80;;;;;;;7.03;77.95;97161.50;4983101;28;20038;-53
2021/12/24 02:36:08;;;;;;;9.30;4.30;;;;;;;6.93;78.28;97165.69;4983181;28;20026;-55
2021/12/24 02:38:34;;;;;;;9.88;4.13;;;;;;;6.95;77.96;97158.56;4983734;28;20107;-55
2021/12/24 02:40:59;;;;;;;9.02;4.30;;;;;;;7.02;78.26;97152.00;4998209;28;20054;-53
2021/12/24 02:43:25;;;;;;;8.57;4.18;;;;;;;6.98;77.54;97153.97;4998125;28;20419;-53
2021/12/24 02:45:54;;;;;;;9.13;4.05;;;;;;;6.95;77.66;97146.41;5000753;28;20061;-53
2021/12/24 02:56:17;;;;;;;10.43;4.20;;;;;;;7.21;77.02;97126.28;4983767;28;20553;-54
2021/12/24 02:58:44;;;;;;;8.02;3.67;;;;;;;7.16;76.79;97133.59;4983183;28;20035;-53
2021/12/24 03:01:11;;;;;;;8.40;3.67;;;;;;;7.28;77.06;97126.66;4983591;28;20073;-52
2021/12/24 03:03:37;;;;;;;8.00;3.40;;;;;;;7.38;76.05;97123.28;4982289;28;20026;-51
2021/12/24 03:06:03;;;;;;;9.02;3.75;;;;;;;7.48;76.22;97122.63;4983473;28;20031;-52
2021/12/24 03:08:28;;;;;;;8.48;3.97;;;;;;;7.50;75.79;97116.34;4992776;28;20037;-50
2021/12/24 03:10:55;;;;;;;8.32;4.13;;;;;;;7.57;75.12;97108.88;5002549;28;20034;-53
2021/12/24 03:13:21;;;;;;;9.20;4.00;;;;;;;7.57;75.66;97106.25;4995937;28;20069;-52
2021/12/24 03:15:50;;;;;;;8.75;4.45;;;;;;;7.74;74.88;97108.47;4965993;28;20023;-50
2021/12/24 03:18:22;;;;;;;7.75;4.15;;;;;;;7.77;74.57;97108.22;4983406;28;20026;-52
2021/12/24 03:20:47;;;;;;;8.60;3.90;;;;;;;7.75;74.78;97115.34;4983574;28;20434;-52
2021/12/24 03:23:33;;;;;;;8.00;3.70;;;;;;;7.73;74.56;97126.84;4983088;28;20735;-51
2021/12/24 03:25:58;;;;;;;8.13;3.75;;;;;;;7.70;75.09;97117.47;4983078;28;20100;-52
2021/12/24 03:28:23;;;;;;;8.85;3.50;;;;;;;7.68;74.50;97113.31;4982829;28;20113;-52
2021/12/24 03:30:49;;;;;;;7.70;3.40;;;;;;;7.71;74.66;97113.06;4980830;28;20045;-52
2021/12/24 03:33:14;;;;;;;8.23;3.63;;;;;;;7.81;73.97;97101.00;4982307;28;20027;-55
2021/12/24 03:35:39;;;;;;;8.05;3.95;;;;;;;7.68;74.46;97097.66;4981464;28;20038;-54
2021/12/24 03:38:05;;;;;;;8.40;3.92;;;;;;;7.74;74.55;97098.03;4983512;28;20033;-53
2021/12/24 03:40:30;;;;;;;9.88;4.28;;;;;;;7.76;74.84;97090.09;4982163;28;20034;-53
2021/12/24 03:42:56;;;;;;;8.85;3.92;;;;;;;7.65;74.52;97083.06;4991574;28;20034;-54
2021/12/24 03:45:40;;;;;;;8.70;4.00;;;;;;;7.53;75.75;97078.75;4994877;28;20082;-52
2021/12/24 03:48:15;;;;;;;8.35;4.13;;;;;;;7.65;75.61;97083.06;4982631;28;20042;-52
2021/12/24 03:51:02;;;;;;;8.68;3.70;;;;;;;7.59;76.22;97079.13;4983238;28;20105;-51
2021/12/24 03:56:11;;;;;;;9.60;3.90;;;;;;;7.49;75.75;97064.25;4982406;28;20114;-53
2021/12/24 03:58:37;;;;;;;7.90;3.53;;;;;;;7.48;76.33;97073.03;4998131;28;20049;-53
2021/12/24 04:01:02;;;;;;;9.48;4.30;;;;;;;7.49;76.87;97067.69;5002039;28;20031;-52
2021/12/24 04:03:27;;;;;;;9.68;4.13;;;;;;;7.54;76.26;97062.16;5000679;28;20026;-50
2021/12/24 04:05:53;;;;;;;8.50;3.80;;;;;;;7.46;76.83;97072.31;4983200;28;20023;-51
2021/12/24 04:08:18;;;;;;;8.38;4.00;;;;;;;7.53;76.28;97068.31;4981295;28;20030;-53
2021/12/24 04:10:44;;;;;;;9.98;3.95;;;;;;;7.70;75.32;97075.69;4982212;28;20037;-53
2021/12/24 04:13:10;;;;;;;9.32;4.30;;;;;;;7.73;75.36;97087.69;4982775;28;20022;-53
2021/12/24 04:15:35;;;;;;;11.07;4.15;;;;;;;7.73;74.74;97075.47;4981661;28;20391;-53
2021/12/24 04:18:02;;;;;;;8.52;3.65;;;;;;;7.72;74.46;97079.03;4982096;28;20490;-52
2021/12/24 04:25:55;;;;;;;10.23;4.00;;;;;;;7.77;75.21;97076.06;4982235;28;20054;-53
2021/12/24 04:28:20;;;;;;;9.57;4.10;;;;;;;7.75;74.81;97070.97;4981684;28;20475;-55
2021/12/24 04:30:50;;;;;;;8.88;4.03;;;;;;;7.78;75.41;97081.19;4982997;28;20131;-52
2021/12/24 04:33:22;;;;;;;8.07;3.85;;;;;;;7.82;74.91;97080.00;4993576;28;20019;-52
2021/12/24 04:36:00;;;;;;;8.35;4.28;;;;;;;7.74;75.36;97061.50;5001594;28;20037;-53
2021/12/24 04:51:57;;;;;;;7.78;3.95;;;;;;;7.76;75.81;97054.38;4985474;28;20038;-52
2021/12/24 05:08:15;;;;;;;8.98;4.40;;;;;;;7.69;76.60;97084.50;4979396;28;20039;-49
2021/12/24 05:10:37;;;;;;;8.23;3.85;;;;;;;7.61;77.05;97068.59;4985962;28;20027;-49
2021/12/24 05:13:03;;;;;;;7.90;3.67;;;;;;;7.62;77.22;97072.84;4986142;28;20091;-52
2021/12/24 05:15:29;;;;;;;7.72;3.90;;;;;;;7.54;77.17;97076.03;4983735;28;20070;-53
2021/12/24 05:23:07;;;;;;;10.02;4.68;;;;;;;7.51;78.19;97071.03;4985483;28;20038;-53
2021/12/24 05:25:42;;;;;;;8.57;4.07;;;;;;;7.55;77.65;97069.84;4984011;28;20027;-54
2021/12/24 05:28:07;;;;;;;8.60;4.38;;;;;;;7.52;77.78;97067.47;4984718;28;20078;-50
2021/12/24 05:30:33;;;;;;;11.10;4.90;;;;;;;7.60;77.78;97086.03;4991436;28;20077;-51
2021/12/24 05:32:58;;;;;;;8.23;4.22;;;;;;;7.44;78.43;97069.81;4984080;28;20037;-48
2021/12/24 05:35:23;;;;;;;10.45;4.63;;;;;;;7.51;77.92;97080.66;4985308;28;20383;-49
2021/12/24 05:37:49;;;;;;;9.73;4.60;;;;;;;7.46;78.44;97067.91;4995290;28;20060;-53
2021/12/24 05:40:14;;;;;;;10.25;4.75;;;;;;;7.54;78.50;97065.59;4984978;28;20023;-50
2021/12/24 05:42:39;;;;;;;8.75;4.70;;;;;;;7.53;78.92;97081.34;4984933;28;20053;-52
2021/12/24 05:45:07;;;;;;;8.88;4.00;;;;;;;7.58;78.27;97081.84;4994534;28;20094;-52
2021/12/24 05:47:32;;;;;;;8.82;3.92;;;;;;;7.46;79.06;97083.56;5005186;28;20053;-50
2021/12/24 05:49:58;;;;;;;8.75;4.70;;;;;;;7.62;78.12;97085.91;4990829;28;20034;-52
2021/12/24 05:52:24;;;;;;;9.73;4.50;;;;;;;7.53;78.03;97090.00;4984437;28;20490;-55
2021/12/24 05:54:49;;;;;;;10.52;5.05;;;;;;;7.45;79.03;97101.97;4986813;28;20029;-50
2021/12/24 05:57:15;;;;;;;11.15;5.45;;;;;;;7.53;78.83;97083.97;5001170;28;20030;-53
2021/12/24 05:59:40;;;;;;;10.65;4.90;;;;;;;7.48;78.48;97081.69;4983212;28;20034;-53
2021/12/24 06:02:05;;;;;;;9.90;4.40;;;;;;;7.54;79.15;97083.03;4984790;28;20041;-49
2021/12/24 06:04:31;;;;;;;11.07;5.05;;;;;;;7.43;79.77;97069.94;4983719;28;20077;-50
2021/12/24 06:06:56;;;;;;;10.93;5.57;;;;;;;7.50;79.45;97084.19;4999156;28;20511;-50
2021/12/24 06:09:21;;;;;;;9.63;4.88;;;;;;;7.44;79.12;97079.44;4988603;28;20106;-50
2021/12/24 06:11:47;;;;;;;10.15;4.82;;;;;;;7.62;78.72;97098.94;4985309;28;20130;-53
2021/12/24 06:14:12;;;;;;;11.00;5.28;;;;;;;7.64;78.95;97090.97;4984650;28;20483;-52
2021/12/24 06:16:46;;;;;;;10.68;5.32;;;;;;;7.57;78.35;97096.69;4991392;28;20113;-54
2021/12/24 06:19:13;;;;;;;9.45;5.20;;;;;;;7.58;78.70;97103.56;4995249;28;20109;-51
2021/12/24 06:21:38;;;;;;;9.77;5.05;;;;;;;7.58;78.52;97106.16;4984571;28;20053;-52
2021/12/24 06:24:04;;;;;;;9.70;5.13;;;;;;;7.52;78.72;97124.06;4983580;28;20074;-52
2021/12/24 06:26:29;;;;;;;12.60;6.25;;;;;;;7.55;78.53;97113.38;4983833;28;20146;-52
2021/12/24 06:28:55;;;;;;;12.02;5.43;;;;;;;7.48;79.26;97102.56;5002491;28;20030;-53
2021/12/24 06:31:20;;;;;;;11.88;5.25;;;;;;;7.36;79.28;97129.53;4984320;28;20035;-53
2021/12/24 06:33:45;;;;;;;11.90;5.32;;;;;;;7.44;79.45;97134.22;4983662;28;20031;-54
2021/12/24 06:36:11;;;;;;;10.95;5.05;;;;;;;7.43;79.60;97109.88;4983681;28;20458;-48
2021/12/24 06:38:37;;;;;;;9.85;4.82;;;;;;;7.56;79.05;97128.09;4983993;28;20046;-52
2021/12/24 06:41:02;;;;;;;11.32;5.47;;;;;;;7.56;78.68;97135.91;4982067;28;20026;-53
2021/12/24 06:43:28;;;;;;;9.63;4.80;;;;;;;7.58;78.65;97139.25;4982650;28;20031;-52
2021/12/24 06:45:54;;;;;;;11.38;5.18;;;;;;;7.60;78.93;97140.81;4982256;28;20057;-54
2021/12/24 06:48:19;;;;;;;10.40;5.20;;;;;;;7.45;79.09;97149.75;4983546;28;20078;-53
2021/12/24 06:50:45;;;;;;;11.05;5.55;;;;;;;7.56;78.65;97146.34;4982044;28;20026;-51
2021/12/24 06:53:10;;;;;;;11.02;5.40;;;;;;;7.47;78.83;97147.06;4982087;28;20627;-52
2021/12/24 06:55:36;;;;;;;9.55;5.07;;;;;;;7.41;79.25;97157.94;4981981;28;20023;-52
2021/12/24 06:58:01;;;;;;;11.77;5.68;;;;;;;7.45;79.50;97146.31;4983113;28;20042;-55
2021/12/24 07:00:27;;;;;;;10.75;5.18;;;;;;;7.47;79.16;97137.44;4999688;28;20514;-53
2021/12/24 07:02:52;;;;;;;11.88;5.32;;;;;;;7.36;79.21;97143.44;4982234;28;20034;-52
2021/12/24 07:05:17;;;;;;;11.05;5.63;;;;;;;7.51;79.17;97136.25;4981920;28;20050;-50
2021/12/24 07:07:43;;;;;;;10.80;5.43;;;;;;;7.31;79.85;97137.72;4982906;28;20027;-52
2021/12/24 07:10:09;;;;;;;11.65;5.20;;;;;;;7.44;79.31;97144.66;4989099;28;20034;-53
2021/12/24 07:12:34;;;;;;;11.13;5.72;;;;;;;7.42;79.29;97141.31;4989748;28;20023;-53
2021/12/24 07:14:59;;;;;;;11.18;5.65;;;;;;;7.51;79.09;97143.25;4982214;28;20022;-50
2021/12/24 07:17:25;;;;;;;12.90;6.47;;;;;;;7.53;78.88;97143.97;4982167;28;20394;-49
2021/12/24 07:19:50;;;;;;;10.48;5.47;;;;;;;7.53;79.25;97144.78;4982960;28;20031;-53
2021/12/24 07:22:17;;;;;;;12.20;5.95;;;;;;;7.35;79.39;97143.53;4997498;28;20031;-52
2021/12/24 07:24:43;;;;;;;12.20;5.57;;;;;;;7.53;78.85;97139.56;4979923;28;20098;-52
2021/12/24 07:27:08;;;;;;;10.00;5.30;;;;;;;7.54;78.80;97128.22;4982062;28;20482;-53
2021/12/24 07:29:33;;;;;;;10.40;5.75;;;;;;;7.44;78.93;97145.50;4981838;28;20145;-52
2021/12/24 07:31:59;;;;;;;12.02;6.22;;;;;;;7.53;79.01;97147.41;4994106;28;20034;-53
2021/12/24 07:34:24;;;;;;;11.18;5.57;;;;;;;7.43;79.17;97146.41;4984925;28;20106;-52
2021/12/24 07:36:50;;;;;;;11.50;5.93;;;;;;;7.55;78.66;97144.69;4982376;28;20085;-54
2021/12/24 07:39:15;;;;;;;12.15;5.63;;;;;;;7.49;78.38;97150.34;4981856;28;20161;-54
2021/12/24 07:41:41;;;;;;;10.88;6.00;;;;;;;7.42;79.33;97149.16;4983675;28;20027;-54
2021/12/24 07:44:06;;;;;;;12.38;5.60;;;;;;;7.27;79.07;97138.06;4981574;28;20018;-53
2021/12/24 07:46:39;;;;;;;13.40;5.95;;;;;;;7.31;79.04;97139.50;4979952;28;20019;-54
2021/12/24 07:49:18;;;;;;;11.85;6.07;;;;;;;7.47;78.99;97153.09;4979436;28;20035;-56
2021/12/24 07:54:27;;;;;;;10.77;5.65;;;;;;;7.50;78.94;97152.03;4962674;28;20552;-54
2021/12/24 07:56:53;;;;;;;12.55;6.10;;;;;;;7.52;78.82;97155.34;4994200;28;20566;-53
2021/12/24 07:59:18;;;;;;;9.57;4.97;;;;;;;7.47;79.31;97149.66;4996712;28;20036;-54
2021/12/24 08:01:44;;;;;;;13.50;6.05;;;;;;;7.49;78.44;97155.56;4997230;28;20046;-54
2021/12/24 08:04:10;;;;;;;11.68;5.50;;;;;;;7.53;78.31;97149.19;4977326;28;20114;-53
2021/12/24 08:06:36;;;;;;;11.82;6.22;;;;;;;7.54;78.92;97143.88;4996757;28;20093;-53
2021/12/24 08:09:01;;;;;;;11.52;5.78;;;;;;;7.56;78.71;97146.34;4996602;28;20037;-54
2021/12/24 08:11:26;;;;;;;13.13;6.78;;;;;;;7.46;78.57;97138.38;4997560;28;20084;-51
2021/12/24 08:13:52;;;;;;;12.13;6.57;;;;;;;7.47;78.75;97137.44;4994901;28;20026;-50
2021/12/24 08:16:19;;;;;;;12.52;6.32;;;;;;;7.44;78.77;97126.41;4997109;28;20030;-52
2021/12/24 08:18:45;;;;;;;15.88;6.60;;;;;;;7.47;78.69;97141.84;4999923;28;20449;-54
2021/12/24 08:21:10;;;;;;;12.90;6.60;;;;;;;7.40;79.05;97144.06;5001356;28;20093;-54
2021/12/24 08:23:36;;;;;;;12.75;6.10;;;;;;;7.41;78.78;97150.94;5001699;28;20052;-51
2021/12/24 08:26:01;;;;;;;14.02;6.88;;;;;;;7.50;78.61;97141.56;4998701;28;20609;-52
2021/12/24 08:28:27;;;;;;;13.65;7.22;;;;;;;7.52;78.85;97135.31;4985675;28;20033;-54
2021/12/24 08:30:53;;;;;;;13.40;6.65;;;;;;;7.61;78.39;97139.03;4985350;28;20029;-55
2021/12/24 08:33:19;;;;;;;12.73;6.57;;;;;;;7.67;78.12;97142.97;4982949;28;20034;-53
2021/12/24 08:35:44;;;;;;;13.43;6.82;;;;;;;7.68;77.52;97140.25;4982317;28;20031;-55
2021/12/24 08:38:10;;;;;;;13.20;6.28;;;;;;;7.70;77.70;97132.28;4979516;28;20031;-54
2021/12/24 08:40:35;;;;;;;13.27;5.88;;;;;;;7.61;77.61;97124.22;4979297;28;20483;-51
2021/12/24 08:43:01;;;;;;;14.32;6.45;;;;;;;7.58;78.05;97134.03;4981190;28;20023;-52
2021/12/24 08:45:26;;;;;;;12.93;6.28;;;;;;;7.63;77.56;97115.44;4982200;28;20018;-49
2021/12/24 08:47:51;;;;;;;14.00;6.15;;;;;;;7.61;78.12;97129.44;4988568;28;20372;-51
2021/12/24 08:50:17;;;;;;;12.52;6.65;;;;;;;7.59;78.04;97133.91;4962327;28;20036;-53
2021/12/24 08:52:44;;;;;;;14.18;6.50;;;;;;;7.57;77.66;97130.59;4961718;29;20568;-51
2021/12/24 08:55:10;;;;;;;12.88;6.38;;;;;;;7.64;77.50;97132.75;4971319;28;20082;-53
2021/12/24 08:57:36;;;;;;;13.50;6.57;;;;;;;7.57;77.71;97134.97;4980239;28;20058;-52
2021/12/24 09:00:02;;;;;;;12.27;5.88;;;;;;;7.63;77.79;97113.66;4980098;28;20521;-49
2021/12/24 09:02:27;;;;;;;14.95;9.23;;;;;;;7.78;76.86;97122.13;4981642;28;20027;-49
2021/12/24 09:04:52;;;;;;;16.90;10.40;;;;;;;7.57;77.89;97122.78;4981008;28;20023;-51
2021/12/24 09:07:18;;;;;;;13.50;6.97;;;;;;;7.54;78.42;97124.78;4984248;28;20023;-55
2021/12/24 09:09:43;;;;;;;15.38;9.13;;;;;;;7.43;78.33;97122.94;4980975;28;20034;-52
2021/12/24 09:12:09;;;;;;;14.43;8.55;;;;;;;7.47;78.99;97126.19;4980713;28;20034;-52
2021/12/24 09:14:34;;;;;;;16.80;7.38;;;;;;;7.48;78.08;97122.63;4980729;28;20054;-51
2021/12/24 09:17:02;;;;;;;14.32;7.93;;;;;;;7.39;79.24;97118.88;4980709;28;20635;-51
2021/12/24 09:19:29;;;;;;;15.35;8.35;;;;;;;7.31;79.14;97131.66;4961149;29;20030;-53
2021/12/24 09:21:56;;;;;;;19.70;13.43;;;;;;;7.29;79.27;97134.38;4961571;28;20030;-52
2021/12/24 09:24:24;;;;;;;36.92;24.13;;;;;;;7.17;81.03;97135.25;4961025;28;20087;-51
2021/12/24 09:26:49;;;;;;;24.50;14.90;;;;;;;7.42;80.97;97123.06;4961250;29;20490;-52
2021/12/24 09:29:15;;;;;;;21.45;13.88;;;;;;;7.35;81.47;97123.50;4975406;28;20034;-49
2021/12/24 09:31:40;;;;;;;29.80;16.52;;;;;;;7.17;82.31;97126.63;4980202;28;20497;-51
2021/12/24 09:34:06;;;;;;;33.30;17.75;;;;;;;7.20;81.87;97124.63;4977642;28;20058;-51
2021/12/24 09:36:31;;;;;;;23.85;12.48;;;;;;;6.96;83.79;97127.19;4980764;28;20042;-50
2021/12/24 09:38:59;;;;;;;38.42;20.15;;;;;;;7.08;83.06;97125.47;4978030;28;20053;-50
2021/12/24 09:41:24;;;;;;;39.35;20.23;;;;;;;7.04;82.78;97126.66;4979589;28;20109;-52
2021/12/24 09:43:50;;;;;;;46.05;21.75;;;;;;;6.92;84.13;97120.56;4979849;28;20026;-52
2021/12/24 09:46:15;;;;;;;33.50;16.45;;;;;;;6.95;83.34;97128.16;4980190;28;20062;-51
2021/12/24 09:48:40;;;;;;;28.65;15.57;;;;;;;7.11;82.69;97122.66;4980658;28;20106;-51
2021/12/24 09:51:06;;;;;;;33.58;22.15;;;;;;;6.85;84.26;97122.75;4979626;28;20483;-51
2021/12/24 09:53:32;;;;;;;18.30;10.52;;;;;;;6.71;84.91;97122.03;4980106;28;20033;-53
2021/12/24 09:55:57;;;;;;;20.65;11.20;;;;;;;6.82;84.64;97116.94;4989312;28;20040;-51
2021/12/24 09:58:23;;;;;;;25.13;12.73;;;;;;;6.77;84.96;97122.44;4999450;28;20386;-54
2021/12/24 10:00:48;;;;;;;17.00;9.23;;;;;;;6.95;84.53;97122.94;4996727;28;20104;-52
2021/12/24 10:03:27;;;;;;;26.38;14.63;;;;;;;6.87;84.76;97118.25;4999204;28;20487;-52
2021/12/24 10:05:53;;;;;;;18.92;10.57;;;;;;;7.02;83.85;97132.00;4999495;28;20022;-51
2021/12/24 10:08:20;;;;;;;17.42;9.13;;;;;;;6.94;84.21;97120.44;4976757;28;20030;-53
2021/12/24 10:10:47;;;;;;;18.13;9.82;;;;;;;6.79;84.63;97124.97;4980783;28;20031;-52
2021/12/24 10:13:27;;;;;;;20.38;9.50;;;;;;;6.96;84.02;97131.59;4979234;28;20023;-49
2021/12/24 10:15:54;;;;;;;19.02;9.73;;;;;;;6.98;84.11;97124.47;4980040;28;20082;-51
2021/12/24 10:18:33;;;;;;;17.88;8.63;;;;;;;7.06;84.08;97117.78;4980177;28;20035;-51
2021/12/24 10:21:03;;;;;;;18.63;8.38;;;;;;;7.13;83.24;97111.19;4973293;28;20403;-52
2021/12/24 10:23:49;;;;;;;15.68;8.27;;;;;;;6.97;84.58;97113.22;4978829;28;20502;-52
2021/12/24 10:26:20;;;;;;;16.85;9.38;;;;;;;7.06;83.89;97123.00;4980039;28;20033;-54
2021/12/24 10:29:15;;;;;;;18.85;9.52;;;;;;;6.84;85.51;97123.69;4979296;28;20035;-53
2021/12/24 10:31:48;;;;;;;16.83;9.55;;;;;;;6.64;86.83;97132.91;4920534;29;20047;-52
2021/12/24 10:34:19;;;;;;;17.98;9.63;;;;;;;6.70;87.18;97123.81;4919171;29;20057;-55
2021/12/24 10:36:51;;;;;;;19.00;9.83;;;;;;;6.79;86.66;97124.97;4920874;29;20044;-52
2021/12/24 10:39:17;;;;;;;19.50;10.27;;;;;;;6.62;87.79;97119.16;4920729;29;20270;-54
2021/12/24 10:41:43;;;;;;;18.27;10.25;;;;;;;6.56;87.62;97121.34;4920811;29;20051;-53
2021/12/24 10:44:19;;;;;;;18.73;9.40;;;;;;;6.74;87.23;97121.81;4920736;29;20116;-53
2021/12/24 10:47:05;;;;;;;18.52;10.07;;;;;;;6.82;87.21;97114.31;4923141;29;20032;-53
2021/12/24 10:54:56;;;;;;;18.42;9.57;;;;;;;6.73;87.75;97097.53;4919278;29;20044;-53
2021/12/24 10:57:27;;;;;;;19.33;9.07;;;;;;;6.83;87.09;97088.13;4918913;29;20047;-52
2021/12/24 10:59:54;;;;;;;22.03;10.20;;;;;;;6.60;88.28;97084.53;4904725;29;20032;-51
2021/12/24 11:02:23;;;;;;;18.95;8.60;;;;;;;6.81;86.97;97086.56;4919036;29;20430;-53
2021/12/24 11:04:50;;;;;;;17.73;9.18;;;;;;;6.95;86.92;97077.75;4918609;29;20028;-52
2021/12/24 11:07:31;;;;;;;15.98;8.55;;;;;;;7.05;86.61;97090.03;4928573;28;20129;-52
2021/12/24 11:10:15;;;;;;;20.05;10.40;;;;;;;6.87;87.18;97084.38;4978800;28;20070;-52
2021/12/24 11:12:43;;;;;;;16.50;9.52;;;;;;;6.69;87.54;97080.47;4978891;28;20046;-53
2021/12/24 11:15:28;;;;;;;18.08;8.95;;;;;;;6.62;88.33;97084.44;4984196;28;20026;-53
2021/12/24 11:18:03;;;;;;;18.30;8.55;;;;;;;6.72;88.56;97082.03;4997975;28;20421;-53
2021/12/24 11:20:29;;;;;;;18.23;8.60;;;;;;;6.89;87.28;97085.09;4998243;28;20038;-52
2021/12/24 11:23:02;;;;;;;19.27;8.85;;;;;;;6.80;87.73;97083.13;4992847;28;20051;-51
2021/12/24 11:25:31;;;;;;;19.23;9.23;;;;;;;6.67;88.67;97090.16;4978600;28;20019;-50
2021/12/24 11:27:57;;;;;;;17.27;8.63;;;;;;;6.75;88.53;97079.22;4978732;28;20023;-53
2021/12/24 11:30:22;;;;;;;18.08;9.23;;;;;;;6.80;88.08;97080.53;4988919;28;20038;-50
2021/12/24 11:32:48;;;;;;;19.45;9.82;;;;;;;6.88;87.30;97082.59;4999117;28;20019;-51
2021/12/24 11:35:14;;;;;;;19.25;9.55;;;;;;;6.81;88.00;97087.44;4978874;28;20161;-50
2021/12/24 11:37:41;;;;;;;19.60;10.95;;;;;;;6.77;87.32;97091.16;4979630;28;20487;-48
2021/12/24 11:40:07;;;;;;;18.85;9.10;;;;;;;6.87;87.35;97092.19;4979865;28;20023;-50
2021/12/24 11:42:38;;;;;;;33.50;9.55;;;;;;;6.74;87.59;97095.78;4962086;28;20502;-54
2021/12/24 11:45:04;;;;;;;20.63;9.90;;;;;;;6.84;87.52;97095.00;4962524;28;20109;-50
2021/12/24 11:47:29;;;;;;;18.23;8.45;;;;;;;6.80;87.73;97095.34;4978268;28;20034;-50
2021/12/24 11:49:54;;;;;;;19.58;9.70;;;;;;;6.63;88.23;97091.31;4979453;28;20022;-50
2021/12/24 11:52:20;;;;;;;19.98;9.38;;;;;;;6.73;87.32;97086.28;4979002;28;20479;-51
2021/12/24 11:54:45;;;;;;;21.40;9.05;;;;;;;6.87;87.16;97086.13;4978369;28;20537;-51
2021/12/24 11:57:20;;;;;;;18.52;8.63;;;;;;;6.76;87.95;97094.72;4979115;28;20453;-51
2021/12/24 11:59:46;;;;;;;19.55;9.68;;;;;;;6.88;87.75;97088.66;4996252;28;20057;-50
2021/12/24 12:02:40;;;;;;;20.83;9.88;;;;;;;6.81;87.05;97077.00;4997992;28;20026;-53
2021/12/24 12:05:17;;;;;;;18.92;9.57;;;;;;;6.85;87.02;97068.03;4979520;28;20042;-53
2021/12/24 12:07:42;;;;;;;20.55;9.63;;;;;;;6.78;87.57;97064.19;4957875;28;20023;-53
2021/12/24 12:10:08;;;;;;;22.25;10.43;;;;;;;6.85;87.36;97061.97;4959045;28;20466;-52
2021/12/24 12:12:34;;;;;;;18.95;8.65;;;;;;;6.79;86.86;97054.59;4989277;28;20081;-51
2021/12/24 12:15:21;;;;;;;19.88;10.00;;;;;;;6.80;87.83;97053.63;4981828;28;20394;-51
2021/12/24 12:17:51;;;;;;;18.63;9.68;;;;;;;6.75;87.97;97061.78;4977372;28;20026;-52
2021/12/24 12:20:48;;;;;;;18.67;10.15;;;;;;;6.78;88.00;97058.97;4978196;28;20485;-53
2021/12/24 12:23:49;;;;;;;18.52;9.38;;;;;;;6.72;88.31;97056.81;4976297;28;20022;-52
2021/12/24 12:26:36;;;;;;;20.00;10.63;;;;;;;6.55;88.68;97051.94;4976937;28;20031;-52
2021/12/24 12:29:18;;;;;;;21.48;9.95;;;;;;;6.65;88.42;97056.41;4974658;28;20431;-54
2021/12/24 12:31:43;;;;;;;21.48;10.15;;;;;;;6.57;88.89;97053.53;4957345;29;20027;-52
2021/12/24 12:34:36;;;;;;;19.00;9.60;;;;;;;6.80;88.00;97048.44;4956992;28;20038;-52
2021/12/24 12:37:24;;;;;;;19.98;9.50;;;;;;;6.76;88.16;97045.22;4976581;28;20034;-50
2021/12/24 12:40:12;;;;;;;19.33;9.10;;;;;;;7.00;87.42;97044.41;4970575;28;20036;-51
2021/12/24 12:42:54;;;;;;;19.25;9.52;;;;;;;7.06;86.50;97038.75;4947547;28;20039;-54
2021/12/24 12:45:42;;;;;;;21.02;10.38;;;;;;;6.96;86.90;97042.97;4957491;28;20127;-50
2021/12/24 12:48:11;;;;;;;19.83;9.70;;;;;;;6.79;87.62;97021.53;4944165;29;20031;-50
2021/12/24 12:50:36;;;;;;;21.25;10.25;;;;;;;6.90;86.98;97028.59;4957810;28;20046;-54
2021/12/24 12:53:22;;;;;;;21.13;10.13;;;;;;;6.98;86.55;97030.63;4961912;28;20034;-49
2021/12/24 12:56:06;;;;;;;20.27;9.35;;;;;;;6.93;86.75;97022.31;4961160;28;20058;-53
2021/12/24 12:58:32;;;;;;;21.45;9.60;;;;;;;6.90;86.55;97034.63;4961778;29;20035;-50
2021/12/24 13:01:23;;;;;;;17.90;9.15;;;;;;;7.00;86.32;97039.19;4960563;28;20038;-54
2021/12/24 13:03:55;;;;;;;19.17;9.75;;;;;;;6.72;87.58;97022.09;4968627;28;20403;-51
2021/12/24 13:06:20;;;;;;;19.40;10.55;;;;;;;6.56;88.24;97014.53;4971167;28;20056;-47
2021/12/24 13:08:46;;;;;;;22.23;9.43;;;;;;;6.81;87.63;97014.44;4961305;28;20039;-50
2021/12/24 13:11:16;;;;;;;19.25;9.23;;;;;;;6.78;87.07;97025.09;4975630;28;20027;-50
2021/12/24 13:13:57;;;;;;;20.90;9.90;;;;;;;6.72;87.22;97025.53;4967587;28;20027;-49
2021/12/24 13:16:33;;;;;;;17.75;9.23;;;;;;;6.64;87.64;97027.84;4964151;28;20026;-49
2021/12/24 13:19:20;;;;;;;21.85;10.25;;;;;;;6.71;86.92;97026.47;4975604;28;20609;-52